sensor_id;sensor_type;location;lat;lon;timestamp;temperature;humidity
13998;DHT22;7074;51.508;7.018;2023-12-04T00:01:22;3.30;99.90
13998;DHT22;7074;51.508;7.018;2023-12-04T00:03:51;3.40;99.90
13998;DHT22;7074;51.508;7.018;2023-12-04T00:06:18;3.50;99.90
13998;DHT22;7074;51.508;7.018;2023-12-04T00:08:45;3.50;99.90
13998;DHT22;7074;51.508;7.018;2023-12-04T00:11:13;3.40;99.90
13998;DHT22;7074;51.508;7.018;2023-12-04T00:13:40;3.50;99.90
13998;DHT22;7074;51.508;7.018;2023-12-04T00:16:08;3.50;99.90
13998;DHT22;7074;51.508;7.018;2023-12-04T00:18:37;3.50;99.90
13998;DHT22;7074;51.508;7.018;2023-12-04T00:21:05;3.50;99.90
13998;DHT22;7074;51.508;7.018;2023-12-04T00:23:32;3.50;99.90
13998;DHT22;7074;51.508;7.018;2023-12-04T00:25:59;3.40;99.90
13998;DHT22;7074;51.508;7.018;2023-12-04T00:28:28;3.50;99.90
13998;DHT22;7074;51.508;7.018;2023-12-04T00:30:55;3.50;99.90
13998;DHT22;7074;51.508;7.018;2023-12-04T00:33:23;3.50;99.90
13998;DHT22;7074;51.508;7.018;2023-12-04T00:35:52;3.50;99.90
13998;DHT22;7074;51.508;7.018;2023-12-04T00:38:22;3.40;99.90
13998;DHT22;7074;51.508;7.018;2023-12-04T00:40:49;3.50;99.90
13998;DHT22;7074;51.508;7.018;2023-12-04T00:43:16;3.50;99.90
13998;DHT22;7074;51.508;7.018;2023-12-04T00:45:43;3.50;99.90
13998;DHT22;7074;51.508;7.018;2023-12-04T00:48:11;3.50;99.90
13998;DHT22;7074;51.508;7.018;2023-12-04T00:50:38;3.50;99.90
13998;DHT22;7074;51.508;7.018;2023-12-04T00:53:07;3.50;99.90
13998;DHT22;7074;51.508;7.018;2023-12-04T00:55:34;3.40;99.90
13998;DHT22;7074;51.508;7.018;2023-12-04T00:58:02;3.40;99.90
13998;DHT22;7074;51.508;7.018;2023-12-04T01:00:29;3.40;99.90
13998;DHT22;7074;51.508;7.018;2023-12-04T01:02:57;3.50;99.90
13998;DHT22;7074;51.508;7.018;2023-12-04T01:05:24;3.50;99.90
13998;DHT22;7074;51.508;7.018;2023-12-04T01:07:52;3.50;99.90
13998;DHT22;7074;51.508;7.018;2023-12-04T01:10:21;3.50;99.90
13998;DHT22;7074;51.508;7.018;2023-12-04T01:12:49;3.50;99.90
13998;DHT22;7074;51.508;7.018;2023-12-04T01:15:16;3.60;99.90
13998;DHT22;7074;51.508;7.018;2023-12-04T01:17:43;3.60;99.90
13998;DHT22;7074;51.508;7.018;2023-12-04T01:20:11;3.60;99.90
13998;DHT22;7074;51.508;7.018;2023-12-04T01:22:39;3.60;99.90
13998;DHT22;7074;51.508;7.018;2023-12-04T01:25:07;3.60;99.90
13998;DHT22;7074;51.508;7.018;2023-12-04T01:27:36;3.70;99.90
13998;DHT22;7074;51.508;7.018;2023-12-04T01:30:05;3.70;99.90
13998;DHT22;7074;51.508;7.018;2023-12-04T01:32:33;3.70;99.90
13998;DHT22;7074;51.508;7.018;2023-12-04T01:35:01;3.70;99.90
13998;DHT22;7074;51.508;7.018;2023-12-04T01:37:29;3.70;99.90
13998;DHT22;7074;51.508;7.018;2023-12-04T01:39:55;3.70;99.90
13998;DHT22;7074;51.508;7.018;2023-12-04T01:42:23;3.70;99.90
13998;DHT22;7074;51.508;7.018;2023-12-04T01:44:52;3.80;99.90
13998;DHT22;7074;51.508;7.018;2023-12-04T01:47:19;3.80;99.90
13998;DHT22;7074;51.508;7.018;2023-12-04T01:49:47;3.80;99.90
13998;DHT22;7074;51.508;7.018;2023-12-04T01:52:14;3.70;99.90
13998;DHT22;7074;51.508;7.018;2023-12-04T01:54:42;3.70;99.90
13998;DHT22;7074;51.508;7.018;2023-12-04T01:57:10;3.70;99.90
13998;DHT22;7074;51.508;7.018;2023-12-04T01:59:38;3.80;99.90
13998;DHT22;7074;51.508;7.018;2023-12-04T02:02:07;3.80;99.90
13998;DHT22;7074;51.508;7.018;2023-12-04T02:04:35;3.80;99.90
13998;DHT22;7074;51.508;7.018;2023-12-04T02:07:02;3.80;99.90
13998;DHT22;7074;51.508;7.018;2023-12-04T02:09:30;3.80;99.90
13998;DHT22;7074;51.508;7.018;2023-12-04T02:11:58;3.70;99.90
13998;DHT22;7074;51.508;7.018;2023-12-04T02:14:26;3.70;99.90
13998;DHT22;7074;51.508;7.018;2023-12-04T02:16:54;3.70;99.90
13998;DHT22;7074;51.508;7.018;2023-12-04T02:19:24;3.70;99.90
13998;DHT22;7074;51.508;7.018;2023-12-04T02:21:52;3.80;99.90
13998;DHT22;7074;51.508;7.018;2023-12-04T02:24:20;3.80;99.90
13998;DHT22;7074;51.508;7.018;2023-12-04T02:26:52;3.80;99.90
13998;DHT22;7074;51.508;7.018;2023-12-04T02:29:26;3.80;99.90
13998;DHT22;7074;51.508;7.018;2023-12-04T02:31:57;3.80;99.90
13998;DHT22;7074;51.508;7.018;2023-12-04T02:34:25;3.80;99.90
13998;DHT22;7074;51.508;7.018;2023-12-04T02:36:53;3.80;99.90
13998;DHT22;7074;51.508;7.018;2023-12-04T02:39:23;3.80;99.90
13998;DHT22;7074;51.508;7.018;2023-12-04T02:41:51;3.80;99.90
13998;DHT22;7074;51.508;7.018;2023-12-04T02:44:18;3.90;99.90
13998;DHT22;7074;51.508;7.018;2023-12-04T02:46:45;3.80;99.90
13998;DHT22;7074;51.508;7.018;2023-12-04T02:49:12;3.90;99.90
13998;DHT22;7074;51.508;7.018;2023-12-04T02:51:40;3.90;99.90
13998;DHT22;7074;51.508;7.018;2023-12-04T02:54:08;3.90;99.90
13998;DHT22;7074;51.508;7.018;2023-12-04T02:56:36;3.90;99.90
13998;DHT22;7074;51.508;7.018;2023-12-04T02:59:03;3.80;99.90
13998;DHT22;7074;51.508;7.018;2023-12-04T03:01:31;3.90;99.90
13998;DHT22;7074;51.508;7.018;2023-12-04T03:03:58;3.90;99.90
13998;DHT22;7074;51.508;7.018;2023-12-04T03:06:25;3.90;99.90
13998;DHT22;7074;51.508;7.018;2023-12-04T03:08:53;3.90;99.90
13998;DHT22;7074;51.508;7.018;2023-12-04T03:11:20;3.90;99.90
13998;DHT22;7074;51.508;7.018;2023-12-04T03:13:48;3.80;99.90
13998;DHT22;7074;51.508;7.018;2023-12-04T03:16:16;3.90;99.90
13998;DHT22;7074;51.508;7.018;2023-12-04T03:18:44;3.90;99.90
13998;DHT22;7074;51.508;7.018;2023-12-04T03:21:12;3.80;99.90
13998;DHT22;7074;51.508;7.018;2023-12-04T03:23:39;3.80;99.90
13998;DHT22;7074;51.508;7.018;2023-12-04T03:26:06;3.90;99.90
13998;DHT22;7074;51.508;7.018;2023-12-04T03:28:34;3.90;99.90
13998;DHT22;7074;51.508;7.018;2023-12-04T03:31:02;3.90;99.90
13998;DHT22;7074;51.508;7.018;2023-12-04T03:33:30;3.90;99.90
13998;DHT22;7074;51.508;7.018;2023-12-04T03:35:59;3.90;99.90
13998;DHT22;7074;51.508;7.018;2023-12-04T03:38:26;3.90;99.90
13998;DHT22;7074;51.508;7.018;2023-12-04T03:40:54;4.00;99.90
13998;DHT22;7074;51.508;7.018;2023-12-04T03:43:21;4.00;99.90
13998;DHT22;7074;51.508;7.018;2023-12-04T03:45:48;4.00;99.90
13998;DHT22;7074;51.508;7.018;2023-12-04T03:48:17;4.00;99.90
13998;DHT22;7074;51.508;7.018;2023-12-04T03:50:44;4.10;99.90
13998;DHT22;7074;51.508;7.018;2023-12-04T03:53:12;4.10;99.90
13998;DHT22;7074;51.508;7.018;2023-12-04T03:55:40;4.00;99.90
13998;DHT22;7074;51.508;7.018;2023-12-04T03:58:07;4.10;99.90
13998;DHT22;7074;51.508;7.018;2023-12-04T04:00:34;4.10;99.90
13998;DHT22;7074;51.508;7.018;2023-12-04T04:03:01;4.10;99.90
13998;DHT22;7074;51.508;7.018;2023-12-04T04:05:30;4.10;99.90
13998;DHT22;7074;51.508;7.018;2023-12-04T04:08:00;4.00;99.90
13998;DHT22;7074;51.508;7.018;2023-12-04T04:10:27;4.00;99.90
13998;DHT22;7074;51.508;7.018;2023-12-04T04:12:55;4.00;99.90
13998;DHT22;7074;51.508;7.018;2023-12-04T04:15:22;4.00;99.90
13998;DHT22;7074;51.508;7.018;2023-12-04T04:17:49;4.00;99.90
13998;DHT22;7074;51.508;7.018;2023-12-04T04:20:17;4.00;99.90
13998;DHT22;7074;51.508;7.018;2023-12-04T04:22:47;4.00;99.90
13998;DHT22;7074;51.508;7.018;2023-12-04T04:25:15;4.10;99.90
13998;DHT22;7074;51.508;7.018;2023-12-04T04:27:43;4.10;99.90
13998;DHT22;7074;51.508;7.018;2023-12-04T04:30:11;4.10;99.90
13998;DHT22;7074;51.508;7.018;2023-12-04T04:32:39;4.10;99.90
13998;DHT22;7074;51.508;7.018;2023-12-04T04:35:07;4.10;99.90
13998;DHT22;7074;51.508;7.018;2023-12-04T04:37:34;4.10;99.90
13998;DHT22;7074;51.508;7.018;2023-12-04T04:40:05;4.10;99.90
13998;DHT22;7074;51.508;7.018;2023-12-04T04:42:32;4.20;99.90
13998;DHT22;7074;51.508;7.018;2023-12-04T04:45:00;4.20;99.90
13998;DHT22;7074;51.508;7.018;2023-12-04T04:47:27;4.30;99.90
13998;DHT22;7074;51.508;7.018;2023-12-04T04:49:55;4.30;99.60
13998;DHT22;7074;51.508;7.018;2023-12-04T04:52:32;4.20;99.20
13998;DHT22;7074;51.508;7.018;2023-12-04T04:55:00;4.20;98.30
13998;DHT22;7074;51.508;7.018;2023-12-04T04:57:29;4.10;98.50
13998;DHT22;7074;51.508;7.018;2023-12-04T04:59:56;4.10;98.50
13998;DHT22;7074;51.508;7.018;2023-12-04T05:02:24;4.10;98.40
13998;DHT22;7074;51.508;7.018;2023-12-04T05:04:51;4.20;97.80
13998;DHT22;7074;51.508;7.018;2023-12-04T05:07:19;4.20;97.70
13998;DHT22;7074;51.508;7.018;2023-12-04T05:09:46;4.20;97.60
13998;DHT22;7074;51.508;7.018;2023-12-04T05:12:13;4.10;96.50
13998;DHT22;7074;51.508;7.018;2023-12-04T05:14:42;4.20;97.00
13998;DHT22;7074;51.508;7.018;2023-12-04T05:17:10;4.10;97.20
13998;DHT22;7074;51.508;7.018;2023-12-04T05:19:37;4.20;97.10
13998;DHT22;7074;51.508;7.018;2023-12-04T05:22:04;4.20;97.30
13998;DHT22;7074;51.508;7.018;2023-12-04T05:24:32;4.20;96.20
13998;DHT22;7074;51.508;7.018;2023-12-04T05:26:59;4.20;96.60
13998;DHT22;7074;51.508;7.018;2023-12-04T05:29:26;4.20;96.80
13998;DHT22;7074;51.508;7.018;2023-12-04T05:31:55;4.30;97.10
13998;DHT22;7074;51.508;7.018;2023-12-04T05:34:23;4.20;96.60
13998;DHT22;7074;51.508;7.018;2023-12-04T05:36:50;4.20;95.90
13998;DHT22;7074;51.508;7.018;2023-12-04T05:39:17;4.20;96.20
13998;DHT22;7074;51.508;7.018;2023-12-04T05:41:45;4.20;96.50
13998;DHT22;7074;51.508;7.018;2023-12-04T05:44:12;4.20;96.80
13998;DHT22;7074;51.508;7.018;2023-12-04T05:46:40;4.20;96.70
13998;DHT22;7074;51.508;7.018;2023-12-04T05:49:09;4.10;96.50
13998;DHT22;7074;51.508;7.018;2023-12-04T05:51:36;4.10;96.60
13998;DHT22;7074;51.508;7.018;2023-12-04T05:54:04;4.10;96.80
13998;DHT22;7074;51.508;7.018;2023-12-04T05:56:31;4.10;97.10
13998;DHT22;7074;51.508;7.018;2023-12-04T05:58:58;4.10;97.20
13998;DHT22;7074;51.508;7.018;2023-12-04T06:01:25;4.10;97.00
13998;DHT22;7074;51.508;7.018;2023-12-04T06:03:53;4.10;97.10
13998;DHT22;7074;51.508;7.018;2023-12-04T06:06:22;4.10;97.60
13998;DHT22;7074;51.508;7.018;2023-12-04T06:08:49;4.20;97.20
13998;DHT22;7074;51.508;7.018;2023-12-04T06:11:17;4.20;97.50
13998;DHT22;7074;51.508;7.018;2023-12-04T06:13:44;4.10;96.80
13998;DHT22;7074;51.508;7.018;2023-12-04T06:16:12;4.10;97.20
13998;DHT22;7074;51.508;7.018;2023-12-04T06:18:39;4.10;97.20
13998;DHT22;7074;51.508;7.018;2023-12-04T06:21:07;4.00;97.30
13998;DHT22;7074;51.508;7.018;2023-12-04T06:23:36;4.10;97.90
13998;DHT22;7074;51.508;7.018;2023-12-04T06:26:04;4.00;96.80
13998;DHT22;7074;51.508;7.018;2023-12-04T06:28:33;4.00;97.10
13998;DHT22;7074;51.508;7.018;2023-12-04T06:31:01;4.10;97.70
13998;DHT22;7074;51.508;7.018;2023-12-04T06:33:29;4.10;97.30
13998;DHT22;7074;51.508;7.018;2023-12-04T06:35:57;4.10;97.00
13998;DHT22;7074;51.508;7.018;2023-12-04T06:38:25;4.00;97.20
13998;DHT22;7074;51.508;7.018;2023-12-04T06:40:55;4.10;97.60
13998;DHT22;7074;51.508;7.018;2023-12-04T06:43:23;4.10;97.10
13998;DHT22;7074;51.508;7.018;2023-12-04T06:45:51;4.00;97.10
13998;DHT22;7074;51.508;7.018;2023-12-04T06:48:20;4.00;97.20
13998;DHT22;7074;51.508;7.018;2023-12-04T06:50:47;4.00;96.60
13998;DHT22;7074;51.508;7.018;2023-12-04T06:53:14;3.90;97.10
13998;DHT22;7074;51.508;7.018;2023-12-04T06:55:42;4.00;97.70
13998;DHT22;7074;51.508;7.018;2023-12-04T06:58:11;3.90;97.10
13998;DHT22;7074;51.508;7.018;2023-12-04T07:00:39;4.00;97.40
13998;DHT22;7074;51.508;7.018;2023-12-04T07:03:07;4.10;97.40
13998;DHT22;7074;51.508;7.018;2023-12-04T07:05:34;4.10;97.30
13998;DHT22;7074;51.508;7.018;2023-12-04T07:08:01;4.10;97.70
13998;DHT22;7074;51.508;7.018;2023-12-04T07:10:29;4.10;97.00
13998;DHT22;7074;51.508;7.018;2023-12-04T07:12:56;4.10;97.30
13998;DHT22;7074;51.508;7.018;2023-12-04T07:15:25;4.10;96.70
13998;DHT22;7074;51.508;7.018;2023-12-04T07:17:52;4.00;97.20
13998;DHT22;7074;51.508;7.018;2023-12-04T07:20:20;4.10;97.30
13998;DHT22;7074;51.508;7.018;2023-12-04T07:22:49;4.00;96.80
13998;DHT22;7074;51.508;7.018;2023-12-04T07:25:16;4.00;97.20
13998;DHT22;7074;51.508;7.018;2023-12-04T07:27:44;4.10;97.20
13998;DHT22;7074;51.508;7.018;2023-12-04T07:30:12;4.10;97.20
13998;DHT22;7074;51.508;7.018;2023-12-04T07:32:41;4.10;97.20
13998;DHT22;7074;51.508;7.018;2023-12-04T07:35:08;4.10;97.30
13998;DHT22;7074;51.508;7.018;2023-12-04T07:37:35;4.20;96.90
13998;DHT22;7074;51.508;7.018;2023-12-04T07:40:03;4.20;97.30
13998;DHT22;7074;51.508;7.018;2023-12-04T07:42:34;4.20;97.30
13998;DHT22;7074;51.508;7.018;2023-12-04T07:45:01;4.20;97.30
13998;DHT22;7074;51.508;7.018;2023-12-04T07:47:28;4.20;97.30
13998;DHT22;7074;51.508;7.018;2023-12-04T07:49:57;4.20;97.30
13998;DHT22;7074;51.508;7.018;2023-12-04T07:52:26;4.20;97.30
13998;DHT22;7074;51.508;7.018;2023-12-04T07:54:53;4.20;97.10
13998;DHT22;7074;51.508;7.018;2023-12-04T07:57:20;4.20;97.30
13998;DHT22;7074;51.508;7.018;2023-12-04T07:59:48;4.20;97.10
13998;DHT22;7074;51.508;7.018;2023-12-04T08:02:15;4.20;96.50
13998;DHT22;7074;51.508;7.018;2023-12-04T08:04:43;4.30;96.80
13998;DHT22;7074;51.508;7.018;2023-12-04T08:07:11;4.30;96.70
13998;DHT22;7074;51.508;7.018;2023-12-04T08:09:39;4.40;96.50
13998;DHT22;7074;51.508;7.018;2023-12-04T08:12:07;4.40;96.00
13998;DHT22;7074;51.508;7.018;2023-12-04T08:14:34;4.40;95.90
13998;DHT22;7074;51.508;7.018;2023-12-04T08:17:02;4.40;95.80
13998;DHT22;7074;51.508;7.018;2023-12-04T08:19:29;4.40;96.10
13998;DHT22;7074;51.508;7.018;2023-12-04T08:21:57;4.50;96.50
13998;DHT22;7074;51.508;7.018;2023-12-04T08:24:26;4.50;96.40
13998;DHT22;7074;51.508;7.018;2023-12-04T08:26:53;4.60;96.30
13998;DHT22;7074;51.508;7.018;2023-12-04T08:29:21;4.60;95.70
13998;DHT22;7074;51.508;7.018;2023-12-04T08:31:48;4.60;95.10
13998;DHT22;7074;51.508;7.018;2023-12-04T08:34:16;4.60;94.20
13998;DHT22;7074;51.508;7.018;2023-12-04T08:36:43;4.60;94.30
13998;DHT22;7074;51.508;7.018;2023-12-04T08:39:11;4.60;94.60
13998;DHT22;7074;51.508;7.018;2023-12-04T08:41:40;4.70;94.60
13998;DHT22;7074;51.508;7.018;2023-12-04T08:44:07;4.70;94.60
13998;DHT22;7074;51.508;7.018;2023-12-04T08:46:35;4.70;94.00
13998;DHT22;7074;51.508;7.018;2023-12-04T08:49:02;4.70;94.20
13998;DHT22;7074;51.508;7.018;2023-12-04T08:51:30;4.70;94.20
13998;DHT22;7074;51.508;7.018;2023-12-04T08:53:57;4.70;93.80
13998;DHT22;7074;51.508;7.018;2023-12-04T08:56:24;4.80;94.30
13998;DHT22;7074;51.508;7.018;2023-12-04T08:58:53;4.90;93.80
13998;DHT22;7074;51.508;7.018;2023-12-04T09:01:21;4.90;93.90
13998;DHT22;7074;51.508;7.018;2023-12-04T09:03:48;4.90;93.50
13998;DHT22;7074;51.508;7.018;2023-12-04T09:06:15;4.80;92.90
13998;DHT22;7074;51.508;7.018;2023-12-04T09:08:43;4.90;93.60
13998;DHT22;7074;51.508;7.018;2023-12-04T09:11:10;4.90;93.30
13998;DHT22;7074;51.508;7.018;2023-12-04T09:13:37;4.90;93.50
13998;DHT22;7074;51.508;7.018;2023-12-04T09:16:07;4.90;93.10
13998;DHT22;7074;51.508;7.018;2023-12-04T09:18:34;5.00;92.90
13998;DHT22;7074;51.508;7.018;2023-12-04T09:21:02;5.00;92.60
13998;DHT22;7074;51.508;7.018;2023-12-04T09:23:30;4.90;92.80
13998;DHT22;7074;51.508;7.018;2023-12-04T09:25:59;4.90;92.60
13998;DHT22;7074;51.508;7.018;2023-12-04T09:28:26;4.90;92.20
13998;DHT22;7074;51.508;7.018;2023-12-04T09:30:54;4.90;92.20
13998;DHT22;7074;51.508;7.018;2023-12-04T09:33:23;5.00;93.00
13998;DHT22;7074;51.508;7.018;2023-12-04T09:35:50;5.00;92.10
13998;DHT22;7074;51.508;7.018;2023-12-04T09:38:18;5.00;92.00
13998;DHT22;7074;51.508;7.018;2023-12-04T09:40:45;5.20;92.50
13998;DHT22;7074;51.508;7.018;2023-12-04T09:43:13;5.10;91.20
13998;DHT22;7074;51.508;7.018;2023-12-04T09:45:41;5.20;91.80
13998;DHT22;7074;51.508;7.018;2023-12-04T09:48:09;5.30;92.20
13998;DHT22;7074;51.508;7.018;2023-12-04T09:50:38;5.20;91.60
13998;DHT22;7074;51.508;7.018;2023-12-04T09:53:15;5.30;92.10
13998;DHT22;7074;51.508;7.018;2023-12-04T09:55:42;5.30;92.30
13998;DHT22;7074;51.508;7.018;2023-12-04T09:58:12;5.20;92.10
13998;DHT22;7074;51.508;7.018;2023-12-04T10:00:42;5.30;93.20
13998;DHT22;7074;51.508;7.018;2023-12-04T10:03:10;5.30;92.70
13998;DHT22;7074;51.508;7.018;2023-12-04T10:05:43;5.40;93.20
13998;DHT22;7074;51.508;7.018;2023-12-04T10:08:11;5.50;93.50
13998;DHT22;7074;51.508;7.018;2023-12-04T10:10:38;5.50;93.20
13998;DHT22;7074;51.508;7.018;2023-12-04T10:13:06;5.50;93.30
13998;DHT22;7074;51.508;7.018;2023-12-04T10:15:33;5.50;92.80
13998;DHT22;7074;51.508;7.018;2023-12-04T10:18:01;5.60;93.20
13998;DHT22;7074;51.508;7.018;2023-12-04T10:20:28;5.60;92.70
13998;DHT22;7074;51.508;7.018;2023-12-04T10:22:59;5.60;92.70
13998;DHT22;7074;51.508;7.018;2023-12-04T10:25:30;5.60;92.90
13998;DHT22;7074;51.508;7.018;2023-12-04T10:28:08;5.60;92.70
13998;DHT22;7074;51.508;7.018;2023-12-04T10:30:35;5.70;93.20
13998;DHT22;7074;51.508;7.018;2023-12-04T10:33:05;5.60;92.70
13998;DHT22;7074;51.508;7.018;2023-12-04T10:35:34;5.70;92.70
13998;DHT22;7074;51.508;7.018;2023-12-04T10:38:04;5.70;92.90
13998;DHT22;7074;51.508;7.018;2023-12-04T10:40:34;5.70;93.00
13998;DHT22;7074;51.508;7.018;2023-12-04T10:43:14;5.70;93.00
13998;DHT22;7074;51.508;7.018;2023-12-04T10:45:42;5.70;93.60
13998;DHT22;7074;51.508;7.018;2023-12-04T10:48:12;5.70;93.70
13998;DHT22;7074;51.508;7.018;2023-12-04T10:50:41;5.60;93.70
13998;DHT22;7074;51.508;7.018;2023-12-04T10:53:12;5.60;94.20
13998;DHT22;7074;51.508;7.018;2023-12-04T10:55:49;5.60;93.80
13998;DHT22;7074;51.508;7.018;2023-12-04T10:58:17;5.40;94.10
13998;DHT22;7074;51.508;7.018;2023-12-04T11:00:53;5.60;94.60
13998;DHT22;7074;51.508;7.018;2023-12-04T11:03:31;5.60;94.90
13998;DHT22;7074;51.508;7.018;2023-12-04T11:06:52;5.70;94.50
13998;DHT22;7074;51.508;7.018;2023-12-04T11:09:46;5.70;94.40
13998;DHT22;7074;51.508;7.018;2023-12-04T11:12:19;5.70;94.80
13998;DHT22;7074;51.508;7.018;2023-12-04T11:14:54;5.80;94.70
13998;DHT22;7074;51.508;7.018;2023-12-04T11:17:24;5.60;94.00
13998;DHT22;7074;51.508;7.018;2023-12-04T11:19:55;5.70;95.10
13998;DHT22;7074;51.508;7.018;2023-12-04T11:22:25;5.70;95.10
13998;DHT22;7074;51.508;7.018;2023-12-04T11:24:55;5.70;95.00
13998;DHT22;7074;51.508;7.018;2023-12-04T11:27:23;5.70;94.80
13998;DHT22;7074;51.508;7.018;2023-12-04T11:29:51;5.70;95.10
13998;DHT22;7074;51.508;7.018;2023-12-04T11:32:19;5.70;95.30
13998;DHT22;7074;51.508;7.018;2023-12-04T11:34:49;5.60;95.30
13998;DHT22;7074;51.508;7.018;2023-12-04T11:37:20;5.60;95.60
13998;DHT22;7074;51.508;7.018;2023-12-04T11:39:50;5.60;96.00
13998;DHT22;7074;51.508;7.018;2023-12-04T11:42:23;5.70;96.10
13998;DHT22;7074;51.508;7.018;2023-12-04T11:44:57;5.50;96.30
13998;DHT22;7074;51.508;7.018;2023-12-04T11:47:25;5.40;96.50
13998;DHT22;7074;51.508;7.018;2023-12-04T11:49:54;5.40;97.00
13998;DHT22;7074;51.508;7.018;2023-12-04T11:52:32;5.40;97.10
13998;DHT22;7074;51.508;7.018;2023-12-04T11:55:01;5.30;97.80
13998;DHT22;7074;51.508;7.018;2023-12-04T11:57:34;5.30;98.40
13998;DHT22;7074;51.508;7.018;2023-12-04T12:00:13;5.30;98.20
13998;DHT22;7074;51.508;7.018;2023-12-04T12:02:47;5.20;98.90
13998;DHT22;7074;51.508;7.018;2023-12-04T12:05:15;5.20;99.20
13998;DHT22;7074;51.508;7.018;2023-12-04T12:07:43;5.30;99.70
13998;DHT22;7074;51.508;7.018;2023-12-04T12:10:11;5.40;99.90
13998;DHT22;7074;51.508;7.018;2023-12-04T12:12:41;5.40;99.90
13998;DHT22;7074;51.508;7.018;2023-12-04T12:15:09;5.40;99.90
13998;DHT22;7074;51.508;7.018;2023-12-04T12:17:37;5.40;99.90
13998;DHT22;7074;51.508;7.018;2023-12-04T12:20:06;5.50;99.90
13998;DHT22;7074;51.508;7.018;2023-12-04T12:22:35;5.50;99.90
13998;DHT22;7074;51.508;7.018;2023-12-04T12:25:04;5.50;99.90
13998;DHT22;7074;51.508;7.018;2023-12-04T12:27:36;5.30;99.90
13998;DHT22;7074;51.508;7.018;2023-12-04T12:30:08;5.10;99.90
13998;DHT22;7074;51.508;7.018;2023-12-04T12:32:39;5.20;99.90
13998;DHT22;7074;51.508;7.018;2023-12-04T12:35:11;5.20;99.90
13998;DHT22;7074;51.508;7.018;2023-12-04T12:37:40;5.20;99.90
13998;DHT22;7074;51.508;7.018;2023-12-04T12:40:10;5.20;99.90
13998;DHT22;7074;51.508;7.018;2023-12-04T12:42:45;5.10;99.90
13998;DHT22;7074;51.508;7.018;2023-12-04T12:45:40;5.00;99.90
13998;DHT22;7074;51.508;7.018;2023-12-04T12:48:14;4.90;99.90
13998;DHT22;7074;51.508;7.018;2023-12-04T12:50:57;4.90;99.90
13998;DHT22;7074;51.508;7.018;2023-12-04T12:53:34;5.00;99.90
13998;DHT22;7074;51.508;7.018;2023-12-04T12:56:45;4.90;99.90
13998;DHT22;7074;51.508;7.018;2023-12-04T12:59:24;4.90;99.90
13998;DHT22;7074;51.508;7.018;2023-12-04T13:02:10;5.00;99.90
13998;DHT22;7074;51.508;7.018;2023-12-04T13:04:54;5.10;99.90
13998;DHT22;7074;51.508;7.018;2023-12-04T13:08:11;5.10;99.90
13998;DHT22;7074;51.508;7.018;2023-12-04T13:10:32;5.20;99.90
13998;DHT22;7074;51.508;7.018;2023-12-04T13:13:03;5.20;99.90
13998;DHT22;7074;51.508;7.018;2023-12-04T13:15:41;5.20;99.90
13998;DHT22;7074;51.508;7.018;2023-12-04T13:18:11;5.10;99.90
13998;DHT22;7074;51.508;7.018;2023-12-04T13:20:55;5.10;99.90
13998;DHT22;7074;51.508;7.018;2023-12-04T13:23:43;5.10;99.90
13998;DHT22;7074;51.508;7.018;2023-12-04T13:26:12;4.90;99.90
13998;DHT22;7074;51.508;7.018;2023-12-04T13:28:47;4.90;99.90
13998;DHT22;7074;51.508;7.018;2023-12-04T13:31:27;4.70;99.90
13998;DHT22;7074;51.508;7.018;2023-12-04T13:34:13;4.80;99.90
13998;DHT22;7074;51.508;7.018;2023-12-04T13:36:44;4.80;99.90
13998;DHT22;7074;51.508;7.018;2023-12-04T13:39:15;4.80;99.90
13998;DHT22;7074;51.508;7.018;2023-12-04T13:43:58;4.70;99.90
13998;DHT22;7074;51.508;7.018;2023-12-04T13:45:23;4.90;99.90
13998;DHT22;7074;51.508;7.018;2023-12-04T13:48:00;5.00;99.90
13998;DHT22;7074;51.508;7.018;2023-12-04T13:50:29;5.00;99.90
13998;DHT22;7074;51.508;7.018;2023-12-04T13:52:57;4.90;99.90
13998;DHT22;7074;51.508;7.018;2023-12-04T13:55:24;4.80;99.90
13998;DHT22;7074;51.508;7.018;2023-12-04T13:58:11;4.90;99.90
13998;DHT22;7074;51.508;7.018;2023-12-04T14:01:01;4.90;99.90
13998;DHT22;7074;51.508;7.018;2023-12-04T14:03:44;4.90;99.90
13998;DHT22;7074;51.508;7.018;2023-12-04T14:06:23;5.00;99.90
13998;DHT22;7074;51.508;7.018;2023-12-04T14:08:56;4.90;99.90
13998;DHT22;7074;51.508;7.018;2023-12-04T14:11:25;5.00;99.90
13998;DHT22;7074;51.508;7.018;2023-12-04T14:13:57;5.00;99.90
13998;DHT22;7074;51.508;7.018;2023-12-04T14:16:27;5.00;99.90
13998;DHT22;7074;51.508;7.018;2023-12-04T14:19:04;5.00;99.90
13998;DHT22;7074;51.508;7.018;2023-12-04T14:21:49;5.00;99.90
13998;DHT22;7074;51.508;7.018;2023-12-04T14:25:24;5.00;99.90
13998;DHT22;7074;51.508;7.018;2023-12-04T14:28:13;5.00;99.90
13998;DHT22;7074;51.508;7.018;2023-12-04T14:31:12;5.00;99.90
13998;DHT22;7074;51.508;7.018;2023-12-04T14:37:12;5.30;99.90
13998;DHT22;7074;51.508;7.018;2023-12-04T14:39:59;5.30;99.90
13998;DHT22;7074;51.508;7.018;2023-12-04T14:46:03;5.30;99.90
13998;DHT22;7074;51.508;7.018;2023-12-04T14:48:58;5.40;99.90
13998;DHT22;7074;51.508;7.018;2023-12-04T14:51:56;5.40;99.90
13998;DHT22;7074;51.508;7.018;2023-12-04T14:55:02;5.50;99.90
13998;DHT22;7074;51.508;7.018;2023-12-04T14:57:46;5.50;99.90
13998;DHT22;7074;51.508;7.018;2023-12-04T15:00:42;5.50;99.90
13998;DHT22;7074;51.508;7.018;2023-12-04T15:04:06;5.50;99.90
13998;DHT22;7074;51.508;7.018;2023-12-04T15:06:55;5.40;99.90
13998;DHT22;7074;51.508;7.018;2023-12-04T15:09:58;5.30;99.90
13998;DHT22;7074;51.508;7.018;2023-12-04T15:13:12;5.30;99.90
13998;DHT22;7074;51.508;7.018;2023-12-04T15:15:55;5.40;99.90
13998;DHT22;7074;51.508;7.018;2023-12-04T15:18:43;5.30;99.90
13998;DHT22;7074;51.508;7.018;2023-12-04T15:21:48;5.20;99.90
13998;DHT22;7074;51.508;7.018;2023-12-04T15:24:15;5.20;99.90
13998;DHT22;7074;51.508;7.018;2023-12-04T15:26:52;5.20;99.90
13998;DHT22;7074;51.508;7.018;2023-12-04T15:29:22;5.20;99.90
13998;DHT22;7074;51.508;7.018;2023-12-04T15:32:10;5.10;99.90
13998;DHT22;7074;51.508;7.018;2023-12-04T15:34:50;5.20;99.90
13998;DHT22;7074;51.508;7.018;2023-12-04T15:37:24;5.30;99.90
13998;DHT22;7074;51.508;7.018;2023-12-04T15:39:52;5.20;99.90
13998;DHT22;7074;51.508;7.018;2023-12-04T15:42:28;5.20;99.90
13998;DHT22;7074;51.508;7.018;2023-12-04T15:44:59;5.20;99.90
13998;DHT22;7074;51.508;7.018;2023-12-04T15:47:26;5.20;99.90
13998;DHT22;7074;51.508;7.018;2023-12-04T15:50:01;5.10;99.90
13998;DHT22;7074;51.508;7.018;2023-12-04T15:52:48;5.20;99.90
13998;DHT22;7074;51.508;7.018;2023-12-04T15:55:19;5.20;99.90
13998;DHT22;7074;51.508;7.018;2023-12-04T15:57:50;5.30;99.90
13998;DHT22;7074;51.508;7.018;2023-12-04T16:00:21;5.30;99.90
13998;DHT22;7074;51.508;7.018;2023-12-04T16:02:52;5.30;99.90
13998;DHT22;7074;51.508;7.018;2023-12-04T16:05:30;5.20;99.90
13998;DHT22;7074;51.508;7.018;2023-12-04T16:07:58;5.30;99.90
13998;DHT22;7074;51.508;7.018;2023-12-04T16:10:27;5.20;99.90
13998;DHT22;7074;51.508;7.018;2023-12-04T16:13:05;5.10;99.90
13998;DHT22;7074;51.508;7.018;2023-12-04T16:15:32;5.20;99.90
13998;DHT22;7074;51.508;7.018;2023-12-04T16:18:31;5.30;99.90
13998;DHT22;7074;51.508;7.018;2023-12-04T16:20:58;5.30;99.90
13998;DHT22;7074;51.508;7.018;2023-12-04T16:23:30;5.20;99.90
13998;DHT22;7074;51.508;7.018;2023-12-04T16:26:02;5.30;99.90
13998;DHT22;7074;51.508;7.018;2023-12-04T16:28:34;5.30;99.90
13998;DHT22;7074;51.508;7.018;2023-12-04T16:31:13;5.30;99.90
13998;DHT22;7074;51.508;7.018;2023-12-04T16:33:43;5.10;99.90
13998;DHT22;7074;51.508;7.018;2023-12-04T16:36:13;5.10;99.90